createdAt,value
2022-11-12T00:02:31.656Z,7.65
2022-11-12T00:07:53.894Z,7.38
2022-11-12T00:13:17.847Z,6.70
2022-11-12T00:18:40.024Z,6.95
2022-11-12T00:24:02.247Z,7.00
2022-11-12T00:29:25.455Z,7.18
2022-11-12T00:34:47.718Z,6.57
2022-11-12T00:40:10.539Z,6.93
2022-11-12T00:45:33.923Z,8.40
2022-11-12T00:51:01.767Z,9.70
2022-11-12T00:56:23.695Z,9.40
2022-11-12T01:01:47.162Z,8.02
2022-11-12T01:07:09.518Z,8.25
2022-11-12T01:12:32.911Z,10.77
2022-11-12T01:17:56.366Z,10.10
2022-11-12T01:23:18.288Z,11.35
2022-11-12T01:28:40.953Z,11.20
2022-11-12T01:34:06.891Z,10.85
2022-11-12T01:39:28.958Z,10.80
2022-11-12T01:44:53.583Z,10.95
2022-11-12T01:50:24.313Z,10.73
2022-11-12T01:55:46.504Z,9.82
2022-11-12T02:01:08.721Z,9.88
2022-11-12T02:06:33.426Z,10.05
2022-11-12T02:11:55.615Z,9.68
2022-11-12T02:17:18.300Z,9.02
2022-11-12T02:22:41.696Z,9.10
2022-11-12T02:28:06.435Z,8.20
2022-11-12T02:33:28.772Z,7.75
2022-11-12T02:38:52.281Z,7.00
2022-11-12T02:44:14.421Z,6.97
2022-11-12T02:49:36.464Z,7.68
2022-11-12T02:54:59.770Z,6.53
2022-11-12T03:00:21.924Z,7.22
2022-11-12T03:05:45.462Z,6.47
2022-11-12T03:11:10.994Z,6.65
2022-11-12T03:16:33.116Z,6.88
2022-11-12T03:21:55.280Z,6.80
2022-11-12T03:27:18.646Z,6.72
2022-11-12T03:32:40.698Z,7.70
2022-11-12T03:38:02.825Z,7.43
2022-11-12T03:43:26.205Z,6.85
2022-11-12T03:48:48.137Z,8.25
2022-11-12T03:54:10.414Z,8.80
2022-11-12T03:59:34.140Z,9.48
2022-11-12T04:05:12.883Z,9.57
2022-11-12T04:10:36.246Z,9.43
2022-11-12T04:16:19.501Z,9.48
2022-11-12T04:21:54.684Z,9.55
2022-11-12T04:27:19.396Z,9.30
2022-11-12T04:32:49.441Z,9.68
2022-11-12T04:38:11.718Z,10.00
2022-11-12T04:43:50.896Z,10.07
2022-11-12T04:49:14.534Z,10.00
2022-11-12T04:54:36.916Z,11.00
2022-11-12T04:59:59.439Z,10.25
2022-11-12T05:05:23.060Z,10.15
2022-11-12T05:10:46.225Z,8.90
2022-11-12T05:16:08.868Z,9.93
2022-11-12T05:21:49.653Z,8.65
2022-11-12T05:27:13.757Z,9.02
2022-11-12T05:32:35.711Z,8.63
2022-11-12T05:37:59.262Z,8.27
2022-11-12T05:43:21.601Z,8.25
2022-11-12T05:48:43.774Z,7.95
2022-11-12T05:54:07.406Z,6.90
2022-11-12T05:59:29.812Z,6.65
2022-11-12T06:04:51.991Z,6.50
2022-11-12T06:10:20.292Z,6.93
2022-11-12T06:15:42.968Z,6.30
2022-11-12T06:21:26.395Z,5.97
2022-11-12T06:26:50.166Z,6.88
2022-11-12T06:32:12.567Z,5.63
2022-11-12T06:37:34.490Z,5.78
2022-11-12T06:43:00.876Z,4.90
2022-11-12T06:48:23.205Z,6.03
2022-11-12T06:53:45.578Z,6.15
2022-11-12T06:59:09.060Z,6.13
2022-11-12T07:04:31.259Z,5.93
2022-11-12T07:13:54.058Z,5.32
2022-11-12T07:19:16.496Z,5.75
2022-11-12T07:24:38.774Z,6.05
2022-11-12T07:30:02.218Z,5.85
2022-11-12T07:35:24.549Z,5.40
2022-11-12T07:40:46.394Z,5.13
2022-11-12T07:46:12.998Z,5.18
2022-11-12T07:51:35.078Z,4.97
2022-11-12T07:56:57.081Z,4.90
2022-11-12T08:02:20.449Z,5.57
2022-11-12T08:07:42.535Z,5.35
2022-11-12T08:13:05.211Z,5.25
2022-11-12T08:18:29.865Z,5.25
2022-11-12T08:23:52.381Z,4.80
2022-11-12T08:29:14.735Z,5.68
2022-11-12T08:34:41.331Z,5.38
2022-11-12T08:40:03.954Z,5.35
2022-11-12T08:45:26.691Z,5.43
2022-11-12T08:50:49.976Z,5.47
2022-11-12T08:56:12.370Z,5.63
2022-11-12T09:01:34.470Z,5.50
2022-11-12T09:06:58.228Z,5.20
2022-11-12T09:12:20.492Z,4.88
2022-11-12T09:17:42.965Z,5.45
2022-11-12T09:23:08.418Z,4.82
2022-11-12T09:28:30.449Z,4.80
2022-11-12T09:33:52.483Z,4.70
2022-11-12T09:39:16.086Z,5.45
2022-11-12T09:44:41.636Z,5.32
2022-11-12T09:50:19.500Z,4.93
2022-11-12T09:55:45.295Z,4.97
2022-11-12T10:01:15.257Z,5.55
2022-11-12T10:06:46.878Z,5.75
2022-11-12T10:12:34.150Z,6.80
2022-11-12T10:18:05.282Z,5.90
2022-11-12T10:23:30.653Z,5.88
2022-11-12T10:29:00.256Z,6.03
2022-11-12T10:34:23.818Z,6.70
2022-11-12T10:39:47.737Z,6.55
2022-11-12T10:45:22.490Z,6.13
2022-11-12T10:50:44.959Z,6.15
2022-11-12T10:56:24.592Z,5.80
2022-11-12T11:01:56.181Z,6.20
2022-11-12T11:07:23.109Z,5.68
2022-11-12T11:12:45.577Z,5.95
2022-11-12T11:18:12.630Z,6.20
2022-11-12T11:23:41.748Z,5.55
2022-11-12T11:29:22.019Z,5.97
2022-11-12T11:34:57.844Z,6.60
2022-11-12T11:40:28.035Z,7.47
2022-11-12T11:46:01.828Z,6.75
2022-11-12T11:51:48.937Z,6.97
2022-11-12T11:57:16.709Z,6.70
2022-11-12T12:03:07.301Z,6.22
2022-11-12T12:08:45.655Z,6.97
2022-11-12T12:14:23.985Z,6.10
2022-11-12T12:19:57.055Z,6.05
2022-11-12T12:25:26.531Z,5.90
2022-11-12T12:30:53.720Z,5.40
2022-11-12T12:36:18.885Z,5.70
2022-11-12T12:41:47.801Z,5.80
2022-11-12T12:47:13.980Z,6.15
2022-11-12T12:53:00.325Z,6.05
2022-11-12T12:58:29.013Z,5.25
2022-11-12T13:03:58.336Z,6.00
2022-11-12T13:09:26.457Z,5.45
2022-11-12T13:15:08.482Z,4.97
2022-11-12T13:20:36.474Z,5.68
2022-11-12T13:26:31.108Z,5.35
2022-11-12T13:32:26.452Z,5.57
2022-11-12T13:37:52.711Z,6.22
2022-11-12T13:43:31.293Z,4.97
2022-11-12T13:48:59.987Z,6.35
2022-11-12T13:54:40.303Z,6.60
2022-11-12T14:00:26.244Z,6.00
2022-11-12T14:05:50.479Z,6.47
2022-11-12T14:11:52.140Z,6.10
2022-11-12T14:17:26.414Z,5.72
2022-11-12T14:22:49.251Z,6.05
2022-11-12T14:28:27.665Z,6.15
2022-11-12T14:33:50.356Z,7.22
2022-11-12T14:39:13.552Z,6.78
2022-11-12T14:44:39.119Z,6.10
2022-11-12T14:50:01.679Z,5.97
2022-11-12T14:55:27.608Z,6.75
2022-11-12T15:00:53.892Z,6.37
2022-11-12T15:06:22.576Z,6.28
2022-11-12T15:11:46.298Z,8.20
2022-11-12T15:17:30.309Z,8.07
2022-11-12T15:22:53.929Z,6.97
2022-11-12T15:28:22.199Z,6.65
2022-11-12T15:33:46.004Z,5.90
2022-11-12T15:39:14.653Z,6.25
2022-11-12T15:44:38.408Z,6.47
2022-11-12T15:50:02.024Z,7.60
2022-11-12T15:55:24.360Z,9.73
2022-11-12T16:00:47.302Z,9.27
2022-11-12T16:06:13.262Z,7.93
2022-11-12T16:11:38.525Z,8.03
2022-11-12T16:17:00.700Z,7.55
2022-11-12T16:22:24.684Z,8.05
2022-11-12T16:27:51.414Z,7.85
2022-11-12T16:33:16.928Z,8.52
2022-11-12T16:38:40.413Z,9.63
2022-11-12T16:44:02.776Z,10.77
2022-11-12T16:49:26.123Z,11.35
2022-11-12T16:54:49.535Z,17.08
2022-11-12T17:00:14.923Z,18.63
2022-11-12T17:05:37.105Z,15.68
2022-11-12T17:11:07.557Z,11.75
2022-11-12T17:16:29.891Z,9.95
2022-11-12T17:21:52.070Z,10.63
2022-11-12T17:27:15.511Z,10.40
2022-11-12T17:32:37.586Z,10.57
2022-11-12T17:37:59.558Z,11.77
2022-11-12T17:43:23.043Z,11.82
2022-11-12T17:48:45.416Z,11.80
2022-11-12T17:54:08.505Z,10.63
2022-11-12T17:59:31.897Z,11.05
2022-11-12T18:04:53.949Z,10.60
2022-11-12T18:10:19.562Z,10.85
2022-11-12T18:15:43.737Z,10.10
2022-11-12T18:21:06.438Z,11.27
2022-11-12T18:26:28.681Z,11.50
2022-11-12T18:31:52.367Z,10.93
2022-11-12T18:37:14.829Z,12.35
2022-11-12T18:42:37.197Z,13.00
2022-11-12T18:48:00.836Z,13.05
2022-11-12T18:53:23.002Z,13.73
2022-11-12T18:58:45.404Z,13.00
2022-11-12T19:04:12.038Z,13.55
2022-11-12T19:09:34.355Z,12.98
2022-11-12T19:14:56.487Z,13.15
2022-11-12T19:20:20.080Z,13.65
2022-11-12T19:25:42.189Z,14.15
2022-11-12T19:31:05.064Z,13.85
2022-11-12T19:36:28.811Z,13.55
2022-11-12T19:41:51.142Z,13.40
2022-11-12T19:47:13.187Z,14.30
2022-11-12T19:52:36.558Z,15.18
2022-11-12T19:57:58.472Z,15.35
2022-11-12T20:03:22.427Z,16.95
2022-11-12T20:08:46.835Z,18.40
2022-11-12T20:14:08.866Z,17.05
2022-11-12T20:19:30.855Z,16.27
2022-11-12T20:24:54.274Z,16.75
2022-11-12T20:30:16.516Z,16.15
2022-11-12T20:35:39.145Z,19.58
2022-11-12T20:41:04.661Z,18.13
2022-11-12T20:46:28.411Z,16.83
2022-11-12T20:51:50.556Z,16.60
2022-11-12T20:57:14.084Z,15.95
2022-11-12T21:02:36.502Z,14.40
2022-11-12T21:07:58.611Z,14.65
2022-11-12T21:13:23.573Z,12.93
2022-11-12T21:18:45.985Z,13.27
2022-11-12T21:24:09.076Z,11.88
2022-11-12T21:29:32.732Z,12.77
2022-11-12T21:34:55.729Z,12.40
2022-11-12T21:40:18.360Z,12.15
2022-11-12T21:45:47.667Z,12.00
2022-11-12T21:51:11.667Z,13.38
2022-11-12T21:56:34.281Z,12.70
2022-11-12T22:01:57.714Z,13.55
2022-11-12T22:07:19.986Z,13.65
2022-11-12T22:12:58.597Z,13.55
2022-11-12T22:18:26.692Z,11.90
2022-11-12T22:23:51.212Z,12.52
2022-11-12T22:29:13.142Z,11.65
2022-11-12T22:34:36.555Z,9.68
2022-11-12T22:39:58.742Z,9.48
2022-11-12T22:45:20.968Z,10.90
2022-11-12T22:50:45.831Z,10.70
2022-11-12T22:56:09.831Z,10.25
2022-11-12T23:01:34.018Z,10.30
2022-11-12T23:06:57.948Z,9.98
2022-11-12T23:12:20.534Z,10.85
2022-11-12T23:17:42.751Z,10.27
2022-11-12T23:23:06.215Z,11.30
2022-11-12T23:28:28.984Z,9.75
2022-11-12T23:33:53.907Z,9.40
2022-11-12T23:39:20.822Z,9.13
2022-11-12T23:44:43.074Z,9.23
2022-11-12T23:50:06.185Z,9.93
2022-11-12T23:55:30.602Z,12.70
